Terminal Aerodrome Forecast
Issued by NWS

Home | Current Version | Previous Version | Text Only | Print | Product List | Glossary On
Versions: 1 2 3 4 5 6 7 8 9 10 11 12 13 14 15 16 17 18 19 20 21 22 23 24 25 26 27
000
FTUS43 KSGF 251100
TAFJLN
TAF
KJLN 251120Z 2512/2612 17011KT P6SM BKN008
      TEMPO 2512/2514 4SM BR BKN004
     FM251600 18012KT P6SM BKN015
     FM251800 18014G21KT P6SM BKN025
     FM252000 18013G21KT P6SM SCT035
     FM260000 17007KT P6SM SCT035 BKN200 PROB30 2601/2606 5SM -TSRA
      BR BKN030CB=

USA.gov is the U.S. government's official web portal to all federal, state and local government web resources and services.